createdAt,value
2024-03-12T00:01:27.881Z,99418.56
2024-03-12T00:03:56.606Z,99426.34
2024-03-12T00:06:23.925Z,99416.78
2024-03-12T00:08:50.900Z,99418.50
2024-03-12T00:11:17.970Z,99424.50
2024-03-12T00:13:44.753Z,99431.41
2024-03-12T00:16:11.808Z,99427.91
2024-03-12T00:18:41.754Z,99423.66
2024-03-12T00:21:09.092Z,99429.66
2024-03-12T00:23:35.897Z,99436.50
2024-03-12T00:26:04.666Z,99432.09
2024-03-12T00:28:34.854Z,99424.25
2024-03-12T00:31:01.711Z,99432.06
2024-03-12T00:33:28.733Z,99428.59
2024-03-12T00:35:56.524Z,99422.63
2024-03-12T00:38:23.474Z,99426.16
2024-03-12T00:40:51.941Z,99432.16
2024-03-12T00:43:19.386Z,99432.06
2024-03-12T00:45:46.484Z,99431.09
2024-03-12T00:48:15.042Z,99423.34
2024-03-12T00:50:44.309Z,99425.09
2024-03-12T00:53:13.011Z,99423.38
2024-03-12T00:55:42.197Z,99417.34
2024-03-12T00:58:12.486Z,99427.75
2024-03-12T01:00:41.903Z,99431.94
2024-03-12T01:03:13.411Z,99426.69
2024-03-12T01:05:40.965Z,99427.56
2024-03-12T01:08:09.449Z,99428.41
2024-03-12T01:10:37.135Z,99426.69
2024-03-12T01:13:11.006Z,99427.50
2024-03-12T01:15:39.641Z,99423.19
2024-03-12T01:18:10.261Z,99416.19
2024-03-12T01:20:37.804Z,99428.19
2024-03-12T01:23:07.291Z,99432.38
2024-03-12T01:25:37.580Z,99432.31
2024-03-12T01:28:08.005Z,99433.19
2024-03-12T01:30:36.510Z,99427.16
2024-03-12T01:33:07.599Z,99428.16
2024-03-12T01:35:40.504Z,99423.00
2024-03-12T01:38:11.461Z,99430.88
2024-03-12T01:40:39.358Z,99424.84
2024-03-12T01:43:08.651Z,99428.31
2024-03-12T01:45:36.728Z,99435.28
2024-03-12T01:48:09.832Z,99432.72
2024-03-12T01:50:38.144Z,99447.41
2024-03-12T01:53:09.033Z,99438.88
2024-03-12T01:55:44.719Z,99445.81
2024-03-12T01:58:16.094Z,99439.78
2024-03-12T02:00:44.184Z,99431.94
2024-03-12T02:03:11.058Z,99431.00
2024-03-12T02:05:38.119Z,99436.97
2024-03-12T02:08:05.434Z,99435.25
2024-03-12T02:10:32.139Z,99431.84
2024-03-12T02:12:58.979Z,99436.22
2024-03-12T02:15:25.959Z,99434.50
2024-03-12T02:17:55.704Z,99435.53
2024-03-12T02:20:23.326Z,99449.38
2024-03-12T02:22:57.128Z,99436.50
2024-03-12T02:25:24.692Z,99440.84
2024-03-12T02:27:52.666Z,99446.09
2024-03-12T02:30:19.900Z,99441.81
2024-03-12T02:32:48.748Z,99435.66
2024-03-12T02:35:17.517Z,99442.56
2024-03-12T02:37:44.925Z,99446.00
2024-03-12T02:40:14.839Z,99448.56
2024-03-12T02:42:43.063Z,99445.88
2024-03-12T02:45:17.270Z,99451.91
2024-03-12T02:47:46.100Z,99445.88
2024-03-12T02:50:13.692Z,99452.81
2024-03-12T02:52:43.581Z,99452.81
2024-03-12T02:55:10.986Z,99449.28
2024-03-12T02:57:38.404Z,99448.31
2024-03-12T03:00:13.711Z,99447.44
2024-03-12T03:02:42.804Z,99445.69
2024-03-12T03:05:12.900Z,99447.34
2024-03-12T03:07:43.813Z,99452.44
2024-03-12T03:10:12.630Z,99448.97
2024-03-12T03:12:40.724Z,99459.28
2024-03-12T03:15:09.040Z,99457.59
2024-03-12T03:17:36.979Z,99460.31
2024-03-12T03:20:06.373Z,99461.88
2024-03-12T03:22:33.439Z,99461.88
2024-03-12T03:25:00.257Z,99466.16
2024-03-12T03:27:27.021Z,99466.19
2024-03-12T03:29:58.426Z,99475.38
2024-03-12T03:32:28.532Z,99473.41
2024-03-12T03:34:55.233Z,99476.72
2024-03-12T03:37:22.242Z,99468.88
2024-03-12T03:39:49.137Z,99479.06
2024-03-12T03:42:16.966Z,99477.25
2024-03-12T03:44:43.872Z,99472.06
2024-03-12T03:47:10.736Z,99481.44
2024-03-12T03:49:37.740Z,99471.03
2024-03-12T03:52:04.852Z,99466.53
2024-03-12T03:54:32.351Z,99467.97
2024-03-12T03:56:59.084Z,99469.78
2024-03-12T03:59:27.024Z,99465.69
2024-03-12T04:01:54.073Z,99471.59
2024-03-12T04:04:20.791Z,99462.03
2024-03-12T04:06:48.380Z,99464.66
2024-03-12T04:09:16.524Z,99461.06
2024-03-12T04:11:45.238Z,99458.22
2024-03-12T04:14:12.123Z,99460.75
2024-03-12T04:16:39.043Z,99459.91
2024-03-12T04:19:06.411Z,99468.34
2024-03-12T04:21:33.357Z,99469.81
2024-03-12T04:24:00.147Z,99462.97
2024-03-12T04:26:30.246Z,99464.63
2024-03-12T04:28:57.337Z,99469.69
2024-03-12T04:31:25.139Z,99470.44
2024-03-12T04:33:54.203Z,99461.84
2024-03-12T04:36:24.426Z,99467.84
2024-03-12T04:38:51.393Z,99468.69
2024-03-12T04:41:22.057Z,99472.91
2024-03-12T04:43:49.628Z,99471.03
2024-03-12T04:46:16.505Z,99481.88
2024-03-12T04:48:44.480Z,99487.88
2024-03-12T04:51:12.359Z,99475.50
2024-03-12T04:53:39.318Z,99474.06
2024-03-12T04:56:06.473Z,99464.84
2024-03-12T04:58:33.617Z,99475.81
2024-03-12T05:01:02.488Z,99469.91
2024-03-12T05:03:29.409Z,99479.75
2024-03-12T05:05:58.504Z,99474.88
2024-03-12T05:08:26.910Z,99480.47
2024-03-12T05:10:53.884Z,99485.09
2024-03-12T05:13:22.877Z,99487.88
2024-03-12T05:15:50.228Z,99488.88
2024-03-12T05:18:16.971Z,99495.06
2024-03-12T05:20:43.729Z,99494.34
2024-03-12T05:23:12.161Z,99506.66
2024-03-12T05:25:45.942Z,99505.91
2024-03-12T05:28:14.267Z,99513.28
2024-03-12T05:30:42.674Z,99510.53
2024-03-12T05:33:16.493Z,99514.75
2024-03-12T05:35:51.207Z,99521.94
2024-03-12T05:38:33.369Z,99523.69
2024-03-12T05:41:10.135Z,99526.22
2024-03-12T05:43:56.421Z,99529.75
2024-03-12T05:46:43.794Z,99530.16
2024-03-12T05:49:11.297Z,99533.25
2024-03-12T05:51:39.304Z,99542.75
2024-03-12T05:54:06.692Z,99546.09
2024-03-12T05:56:33.815Z,99550.38
2024-03-12T05:59:01.131Z,99551.41
2024-03-12T06:01:29.458Z,99557.50
2024-03-12T06:03:57.047Z,99568.53
2024-03-12T06:06:23.992Z,99563.25
2024-03-12T06:08:50.901Z,99572.84
2024-03-12T06:11:18.428Z,99574.75
2024-03-12T06:13:45.415Z,99584.41
2024-03-12T06:16:12.737Z,99583.81
2024-03-12T06:18:40.553Z,99581.16
2024-03-12T06:21:08.080Z,99583.81
2024-03-12T06:23:34.830Z,99585.25
2024-03-12T06:26:05.354Z,99582.84
2024-03-12T06:28:33.311Z,99587.91
2024-03-12T06:31:00.738Z,99588.84
2024-03-12T06:33:28.579Z,99592.56
2024-03-12T06:35:55.436Z,99590.34
2024-03-12T06:38:22.528Z,99591.53
2024-03-12T06:40:49.815Z,99589.41
2024-03-12T06:43:19.308Z,99599.06
2024-03-12T06:45:46.431Z,99606.41
2024-03-12T06:48:15.098Z,99601.69
2024-03-12T06:50:42.492Z,99610.16
2024-03-12T06:53:09.318Z,99616.13
2024-03-12T06:55:37.310Z,99613.53
2024-03-12T06:58:06.454Z,99618.66
2024-03-12T07:00:41.727Z,99616.81
2024-03-12T07:03:09.039Z,99608.88
2024-03-12T07:05:38.236Z,99612.44
2024-03-12T07:08:08.983Z,99613.53
2024-03-12T07:10:38.564Z,99626.72
2024-03-12T07:13:09.207Z,99628.41
2024-03-12T07:15:41.191Z,99626.59
2024-03-12T07:18:09.297Z,99629.41
2024-03-12T07:20:36.794Z,99621.81
2024-03-12T07:23:04.483Z,99626.47
2024-03-12T07:25:34.572Z,99630.78
2024-03-12T07:28:08.025Z,99624.06
2024-03-12T07:30:36.903Z,99626.66
2024-03-12T07:33:08.052Z,99628.31
2024-03-12T07:35:35.880Z,99625.69
2024-03-12T07:38:04.841Z,99636.97
2024-03-12T07:40:33.338Z,99634.56
2024-03-12T07:43:00.892Z,99634.75
2024-03-12T07:45:28.885Z,99632.22
2024-03-12T07:47:57.531Z,99633.06
2024-03-12T07:50:29.974Z,99633.97
2024-03-12T07:52:57.362Z,99646.13
2024-03-12T07:55:24.454Z,99631.44
2024-03-12T07:57:51.846Z,99637.56
2024-03-12T08:00:21.846Z,99618.53
2024-03-12T08:02:48.780Z,99625.47
2024-03-12T08:05:15.550Z,99636.69
2024-03-12T08:07:45.730Z,99629.78
2024-03-12T08:10:13.834Z,99627.34
2024-03-12T08:12:41.411Z,99621.31
2024-03-12T08:15:10.283Z,99632.63
2024-03-12T08:17:39.376Z,99620.50
2024-03-12T08:20:07.911Z,99630.06
2024-03-12T08:22:34.711Z,99642.22
2024-03-12T08:25:02.617Z,99638.72
2024-03-12T08:27:29.619Z,99639.63
2024-03-12T08:29:58.782Z,99638.78
2024-03-12T08:32:26.789Z,99640.50
2024-03-12T08:34:53.908Z,99637.03
2024-03-12T08:37:23.850Z,99628.38
2024-03-12T08:39:51.603Z,99640.47
2024-03-12T08:42:18.725Z,99635.25
2024-03-12T08:44:45.747Z,99635.22
2024-03-12T08:47:13.048Z,99645.59
2024-03-12T08:49:39.858Z,99635.97
2024-03-12T08:52:06.692Z,99635.97
2024-03-12T08:54:34.451Z,99636.97
2024-03-12T08:57:02.942Z,99643.03
2024-03-12T08:59:30.754Z,99636.06
2024-03-12T09:02:00.766Z,99643.88
2024-03-12T09:04:32.001Z,99637.81
2024-03-12T09:06:59.078Z,99651.75
2024-03-12T09:09:28.187Z,99642.19
2024-03-12T09:11:57.327Z,99645.63
2024-03-12T09:14:24.910Z,99639.50
2024-03-12T09:16:54.997Z,99638.28
2024-03-12T09:19:28.405Z,99623.44
2024-03-12T09:21:55.569Z,99635.00
2024-03-12T09:24:22.274Z,99624.97
2024-03-12T09:26:49.268Z,99617.66
2024-03-12T09:29:16.242Z,99624.72
2024-03-12T09:31:43.854Z,99630.13
2024-03-12T09:34:12.101Z,99626.06
2024-03-12T09:36:39.151Z,99636.19
2024-03-12T09:39:12.563Z,99644.28
2024-03-12T09:41:46.466Z,99632.03
2024-03-12T09:44:13.706Z,99637.94
2024-03-12T09:46:42.587Z,99642.25
2024-03-12T09:49:14.634Z,99640.63
2024-03-12T09:51:43.203Z,99636.06
2024-03-12T09:54:13.248Z,99644.00
2024-03-12T09:56:41.614Z,99642.31
2024-03-12T09:59:09.603Z,99636.34
2024-03-12T10:01:39.922Z,99648.56
2024-03-12T10:04:08.030Z,99648.53
2024-03-12T10:06:35.178Z,99654.44
2024-03-12T10:09:02.438Z,99649.25
2024-03-12T10:11:31.656Z,99649.34
2024-03-12T10:14:00.190Z,99654.56
2024-03-12T10:16:29.145Z,99652.00
2024-03-12T10:19:11.368Z,99651.34
2024-03-12T10:21:39.053Z,99661.63
2024-03-12T10:24:19.143Z,99659.72
2024-03-12T10:26:46.531Z,99652.81
2024-03-12T10:29:15.407Z,99656.19
2024-03-12T10:31:45.312Z,99655.34
2024-03-12T10:34:21.874Z,99663.38
2024-03-12T10:36:51.712Z,99659.78
2024-03-12T10:39:30.110Z,99663.25
2024-03-12T10:42:00.960Z,99674.63
2024-03-12T10:44:30.142Z,99665.94
2024-03-12T10:46:59.846Z,99667.47
2024-03-12T10:49:27.952Z,99669.19
2024-03-12T10:51:56.721Z,99672.78
2024-03-12T10:54:24.253Z,99675.38
2024-03-12T10:56:51.561Z,99677.13
2024-03-12T10:59:21.155Z,99672.97
2024-03-12T11:01:49.660Z,99686.91
2024-03-12T11:04:17.405Z,99685.16
2024-03-12T11:06:45.182Z,99672.94
2024-03-12T11:09:19.339Z,99671.09
2024-03-12T11:11:46.280Z,99669.13
2024-03-12T11:14:13.511Z,99680.25
2024-03-12T11:16:41.872Z,99676.13
2024-03-12T11:19:20.689Z,99683.31
2024-03-12T11:21:53.147Z,99675.56
2024-03-12T11:24:44.147Z,99673.84
2024-03-12T11:27:20.910Z,99676.50
2024-03-12T11:30:12.871Z,99687.94
2024-03-12T11:32:42.070Z,99667.66
2024-03-12T11:35:18.222Z,99671.25
2024-03-12T11:38:03.870Z,99678.91
2024-03-12T11:40:39.330Z,99679.69
2024-03-12T11:43:12.541Z,99676.19
2024-03-12T11:45:48.479Z,99669.22
2024-03-12T11:48:33.094Z,99662.97
2024-03-12T11:51:01.245Z,99657.38
2024-03-12T11:53:32.885Z,99657.19
2024-03-12T11:56:11.606Z,99654.38
2024-03-12T11:58:49.861Z,99659.53
2024-03-12T12:01:25.834Z,99645.13
2024-03-12T12:04:15.900Z,99643.75
2024-03-12T12:06:44.513Z,99640.81
2024-03-12T12:09:11.957Z,99640.53
2024-03-12T12:11:40.235Z,99646.28
2024-03-12T12:14:09.903Z,99643.72
2024-03-12T12:16:37.698Z,99648.50
2024-03-12T12:19:09.302Z,99653.06
2024-03-12T12:21:37.791Z,99651.56
2024-03-12T12:24:05.687Z,99645.38
2024-03-12T12:26:37.833Z,99649.03
2024-03-12T12:29:06.485Z,99657.94
2024-03-12T12:31:37.818Z,99648.25
2024-03-12T12:34:07.276Z,99643.09
2024-03-12T12:36:40.189Z,99643.88
2024-03-12T12:39:12.139Z,99640.34
2024-03-12T12:41:44.581Z,99642.09
2024-03-12T12:44:19.219Z,99650.50
2024-03-12T12:46:47.551Z,99642.56
2024-03-12T12:49:22.010Z,99638.53
2024-03-12T12:51:49.336Z,99640.09
2024-03-12T12:54:17.266Z,99638.00
2024-03-12T12:56:45.716Z,99641.03
2024-03-12T12:59:21.751Z,99644.84
2024-03-12T13:01:49.787Z,99644.59
2024-03-12T13:04:21.549Z,99645.19
2024-03-12T13:06:48.641Z,99648.53
2024-03-12T13:09:37.726Z,99656.72
2024-03-12T13:12:09.058Z,99647.16
2024-03-12T13:14:38.437Z,99659.47
2024-03-12T13:17:06.863Z,99655.34
2024-03-12T13:19:34.208Z,99657.28
2024-03-12T13:22:03.692Z,99652.00
2024-03-12T13:24:31.225Z,99658.88
2024-03-12T13:26:59.621Z,99658.88
2024-03-12T13:29:27.142Z,99653.59
2024-03-12T13:31:54.915Z,99649.38
2024-03-12T13:34:24.699Z,99659.00
2024-03-12T13:36:53.019Z,99652.13
2024-03-12T13:39:20.727Z,99657.34
2024-03-12T13:41:48.068Z,99650.41
2024-03-12T13:44:15.112Z,99647.91
2024-03-12T13:46:44.490Z,99646.94
2024-03-12T13:49:15.298Z,99657.31
2024-03-12T13:51:44.161Z,99653.03
2024-03-12T13:54:11.909Z,99653.09
2024-03-12T13:56:39.129Z,99650.63
2024-03-12T13:59:06.346Z,99657.50
2024-03-12T14:01:34.090Z,99661.69
2024-03-12T14:04:01.195Z,99652.91
2024-03-12T14:06:31.730Z,99663.34
2024-03-12T14:08:58.844Z,99664.44
2024-03-12T14:11:27.083Z,99674.91
2024-03-12T14:13:57.063Z,99668.75
2024-03-12T14:16:25.433Z,99670.44
2024-03-12T14:18:54.111Z,99668.78
2024-03-12T14:21:21.110Z,99667.09
2024-03-12T14:23:49.011Z,99670.69
2024-03-12T14:26:19.281Z,99670.63
2024-03-12T14:28:47.552Z,99659.19
2024-03-12T14:31:17.982Z,99668.03
2024-03-12T14:33:45.006Z,99667.94
2024-03-12T14:36:12.023Z,99669.78
2024-03-12T14:38:39.208Z,99673.25
2024-03-12T14:41:07.838Z,99665.41
2024-03-12T14:43:35.461Z,99670.69
2024-03-12T14:46:04.329Z,99671.53
2024-03-12T14:48:31.194Z,99671.56
2024-03-12T14:51:01.000Z,99668.78
2024-03-12T14:53:28.544Z,99665.94
2024-03-12T14:55:56.024Z,99673.56
2024-03-12T14:58:23.337Z,99671.97
2024-03-12T15:00:50.481Z,99665.63
2024-03-12T15:03:20.229Z,99665.81
2024-03-12T15:05:50.156Z,99663.91
2024-03-12T15:08:17.201Z,99676.00
2024-03-12T15:10:44.114Z,99676.13
2024-03-12T15:13:11.111Z,99681.47
2024-03-12T15:15:38.313Z,99682.91
2024-03-12T15:18:06.095Z,99678.53
2024-03-12T15:20:32.858Z,99680.16
2024-03-12T15:23:02.555Z,99675.66
2024-03-12T15:25:29.543Z,99677.09
2024-03-12T15:27:57.566Z,99683.34
2024-03-12T15:30:25.673Z,99676.13
2024-03-12T15:32:52.930Z,99679.88
2024-03-12T15:35:22.643Z,99678.34
2024-03-12T15:37:49.763Z,99683.53
2024-03-12T15:40:19.735Z,99680.84
2024-03-12T15:42:46.950Z,99680.81
2024-03-12T15:45:16.972Z,99678.03
2024-03-12T15:47:45.171Z,99670.47
2024-03-12T15:50:13.614Z,99670.38
2024-03-12T15:52:40.839Z,99670.19
2024-03-12T15:55:09.656Z,99678.94
2024-03-12T15:57:40.038Z,99681.66
2024-03-12T16:00:09.716Z,99681.75
2024-03-12T16:02:36.682Z,99683.44
2024-03-12T16:05:06.820Z,99681.72
2024-03-12T16:07:37.770Z,99690.41
2024-03-12T16:10:09.946Z,99692.09
2024-03-12T16:12:39.684Z,99687.81
2024-03-12T16:15:10.920Z,99692.25
2024-03-12T16:17:38.131Z,99689.63
2024-03-12T16:20:14.712Z,99692.19
2024-03-12T16:22:45.587Z,99694.59
2024-03-12T16:25:15.111Z,99703.38
2024-03-12T16:27:44.755Z,99698.13
2024-03-12T16:30:15.088Z,99698.22
2024-03-12T16:32:42.965Z,99712.06
2024-03-12T16:35:10.145Z,99711.09
2024-03-12T16:37:40.173Z,99717.94
2024-03-12T16:40:09.430Z,99718.06
2024-03-12T16:42:37.070Z,99717.22
2024-03-12T16:45:05.031Z,99729.63
2024-03-12T16:47:32.008Z,99726.94
2024-03-12T16:50:01.543Z,99718.09
2024-03-12T16:52:28.944Z,99726.00
2024-03-12T16:54:56.169Z,99725.84
2024-03-12T16:57:23.283Z,99736.31
2024-03-12T16:59:57.187Z,99734.88
2024-03-12T17:02:26.322Z,99734.88
2024-03-12T17:04:57.779Z,99735.88
2024-03-12T17:07:25.528Z,99739.28
2024-03-12T17:09:52.645Z,99747.97
2024-03-12T17:12:21.347Z,99747.97
2024-03-12T17:14:49.105Z,99747.06
2024-03-12T17:17:22.627Z,99745.47
2024-03-12T17:19:49.639Z,99749.75
2024-03-12T17:22:16.692Z,99754.09
2024-03-12T17:24:43.883Z,99756.53
2024-03-12T17:27:11.995Z,99765.28
2024-03-12T17:29:39.062Z,99764.28
2024-03-12T17:32:06.577Z,99762.53
2024-03-12T17:34:33.799Z,99765.13
2024-03-12T17:37:05.230Z,99765.34
2024-03-12T17:39:35.627Z,99767.97
2024-03-12T17:42:02.810Z,99761.91
2024-03-12T17:44:30.087Z,99768.09
2024-03-12T17:46:58.520Z,99766.28
2024-03-12T17:49:26.967Z,99771.47
2024-03-12T17:51:55.164Z,99773.25
2024-03-12T17:54:22.982Z,99781.09
2024-03-12T17:56:51.724Z,99780.19
2024-03-12T17:59:20.541Z,99786.31
2024-03-12T18:01:48.483Z,99788.13
2024-03-12T18:04:16.382Z,99789.75
2024-03-12T18:06:45.535Z,99793.19
2024-03-12T18:09:13.752Z,99790.66
2024-03-12T18:11:41.423Z,99803.63
2024-03-12T18:14:10.677Z,99809.78
2024-03-12T18:16:38.900Z,99810.69
2024-03-12T18:19:09.325Z,99808.03
2024-03-12T18:21:37.293Z,99821.09
2024-03-12T18:24:06.755Z,99815.91
2024-03-12T18:26:35.743Z,99826.34
2024-03-12T18:29:04.623Z,99822.88
2024-03-12T18:31:32.045Z,99825.44
2024-03-12T18:33:59.430Z,99821.13
2024-03-12T18:36:26.132Z,99833.25
2024-03-12T18:38:53.031Z,99832.28
2024-03-12T18:41:19.889Z,99830.53
2024-03-12T18:43:48.261Z,99826.25
2024-03-12T18:46:14.924Z,99826.19
2024-03-12T18:48:42.807Z,99825.38
2024-03-12T18:51:10.827Z,99823.69
2024-03-12T18:53:39.293Z,99832.38
2024-03-12T18:56:07.208Z,99822.78
2024-03-12T18:58:35.047Z,99820.06
2024-03-12T19:01:03.126Z,99830.50
2024-03-12T19:03:51.915Z,99821.75
2024-03-12T19:06:27.138Z,99821.72
2024-03-12T19:08:57.738Z,99818.28
2024-03-12T19:11:28.434Z,99818.31
2024-03-12T19:13:56.885Z,99820.94
2024-03-12T19:16:26.750Z,99833.06
2024-03-12T19:18:55.068Z,99824.34
2024-03-12T19:21:22.316Z,99828.72
2024-03-12T19:23:52.674Z,99830.44
2024-03-12T19:26:20.313Z,99833.06
2024-03-12T19:28:47.260Z,99834.84
2024-03-12T19:31:16.027Z,99836.59
2024-03-12T19:33:45.184Z,99843.53
2024-03-12T19:36:13.553Z,99846.06
2024-03-12T19:38:40.733Z,99845.25
2024-03-12T19:41:08.592Z,99850.28
2024-03-12T19:43:38.561Z,99844.34
2024-03-12T19:46:06.623Z,99847.00
2024-03-12T19:48:34.648Z,99846.97
2024-03-12T19:51:01.907Z,99847.81
2024-03-12T19:53:28.842Z,99850.13
2024-03-12T19:55:56.003Z,99851.78
2024-03-12T19:58:23.126Z,99857.97
2024-03-12T20:00:52.822Z,99866.66
2024-03-12T20:03:23.970Z,99864.13
2024-03-12T20:05:51.155Z,99858.84
2024-03-12T20:08:18.204Z,99868.22
2024-03-12T20:10:47.551Z,99864.78
2024-03-12T20:13:14.767Z,99863.78
2024-03-12T20:15:47.057Z,99868.00
2024-03-12T20:18:15.185Z,99866.22
2024-03-12T20:20:45.019Z,99872.25
2024-03-12T20:23:12.373Z,99872.41
2024-03-12T20:25:39.589Z,99876.81
2024-03-12T20:28:11.237Z,99869.03
2024-03-12T20:30:40.480Z,99871.66
2024-03-12T20:33:09.985Z,99878.66
2024-03-12T20:35:39.326Z,99876.00
2024-03-12T20:38:10.351Z,99871.81
2024-03-12T20:40:37.373Z,99874.84
2024-03-12T20:43:07.179Z,99868.72
2024-03-12T20:45:35.641Z,99880.91
2024-03-12T20:48:02.992Z,99874.94
2024-03-12T20:50:30.510Z,99885.28
2024-03-12T20:52:57.548Z,99872.09
2024-03-12T20:55:25.253Z,99877.34
2024-03-12T20:57:52.419Z,99877.38
2024-03-12T21:00:27.931Z,99879.97
2024-03-12T21:02:55.248Z,99876.34
2024-03-12T21:05:22.569Z,99877.28
2024-03-12T21:07:52.863Z,99877.88
2024-03-12T21:10:20.550Z,99875.41
2024-03-12T21:12:52.281Z,99874.47
2024-03-12T21:15:28.649Z,99886.56
2024-03-12T21:17:55.543Z,99881.28
2024-03-12T21:20:34.433Z,99878.63
2024-03-12T21:23:01.498Z,99878.47
2024-03-12T21:25:28.420Z,99882.72
2024-03-12T21:27:55.271Z,99889.09
2024-03-12T21:30:25.065Z,99885.88
2024-03-12T21:32:52.467Z,99897.09
2024-03-12T21:35:19.387Z,99891.13
2024-03-12T21:37:46.364Z,99886.84
2024-03-12T21:40:13.736Z,99889.59
2024-03-12T21:42:43.876Z,99886.66
2024-03-12T21:45:11.410Z,99890.03
2024-03-12T21:47:38.974Z,99889.16
2024-03-12T21:50:09.797Z,99898.63
2024-03-12T21:52:37.353Z,99894.34
2024-03-12T21:55:07.508Z,99887.31
2024-03-12T21:57:38.058Z,99895.25
2024-03-12T22:00:12.854Z,99897.00
2024-03-12T22:02:40.321Z,99898.91
2024-03-12T22:05:07.308Z,99895.38
2024-03-12T22:07:38.238Z,99896.31
2024-03-12T22:10:06.486Z,99896.22
2024-03-12T22:12:33.314Z,99904.72
2024-03-12T22:15:00.211Z,99904.03
2024-03-12T22:17:27.135Z,99904.06
2024-03-12T22:19:55.187Z,99905.00
2024-03-12T22:22:22.252Z,99900.94
2024-03-12T22:24:49.068Z,99894.81
2024-03-12T22:27:15.818Z,99897.19
2024-03-12T22:29:42.648Z,99907.38
2024-03-12T22:32:15.386Z,99900.44
2024-03-12T22:34:42.517Z,99905.69
2024-03-12T22:37:10.152Z,99904.97
2024-03-12T22:39:38.033Z,99902.50
2024-03-12T22:42:06.302Z,99902.31
2024-03-12T22:44:33.380Z,99904.88
2024-03-12T22:47:02.123Z,99903.34
2024-03-12T22:49:29.002Z,99911.91
2024-03-12T22:51:57.208Z,99917.84
2024-03-12T22:54:24.466Z,99908.63
2024-03-12T22:56:51.400Z,99908.84
2024-03-12T22:59:20.105Z,99901.91
2024-03-12T23:01:54.203Z,99908.06
2024-03-12T23:04:25.489Z,99910.38
2024-03-12T23:06:52.650Z,99906.06
2024-03-12T23:09:21.040Z,99906.97
2024-03-12T23:11:47.826Z,99906.91
2024-03-12T23:14:15.120Z,99906.75
2024-03-12T23:16:41.986Z,99904.25
2024-03-12T23:19:12.796Z,99903.44
2024-03-12T23:21:40.000Z,99911.13
2024-03-12T23:24:07.325Z,99903.63
2024-03-12T23:26:34.170Z,99901.03
2024-03-12T23:29:00.924Z,99910.38
2024-03-12T23:31:27.739Z,99910.19
2024-03-12T23:33:57.517Z,99906.75
2024-03-12T23:36:29.216Z,99912.13
2024-03-12T23:38:56.690Z,99902.59
2024-03-12T23:41:24.928Z,99900.25
2024-03-12T23:43:54.119Z,99898.47
2024-03-12T23:46:21.900Z,99898.16
2024-03-12T23:48:49.693Z,99905.19
2024-03-12T23:51:16.664Z,99903.50
2024-03-12T23:53:47.339Z,99905.25
2024-03-12T23:56:14.113Z,99900.06
2024-03-12T23:58:40.880Z,99903.34
